Time;durP1;ratioP1;P1;durP2;ratioP2;P2;SDS_P1;SDS_P2;PMS_P1;PMS_P2;Temp;Humidity;BMP_temperature;BMP_pressure;BME280_temperature;BME280_humidity;BME280_pressure;Samples;Min_cycle;Max_cycle;Signal;HPM_P1;HPM_P2
2022/01/06 00:01:05;;;;;;;0.20;0.20;;;3.80;99.90;;;;;;5147337;28;20039;-78
2022/01/06 00:03:32;;;;;;;0.20;0.20;;;3.70;99.90;;;;;;5164462;27;20040;-78
2022/01/06 00:06:06;;;;;;;0.10;0.10;;;3.70;99.90;;;;;;5164663;27;20036;-78
2022/01/06 00:08:34;;;;;;;0.20;0.20;;;3.70;99.90;;;;;;5130549;28;20135;-78
2022/01/06 00:11:02;;;;;;;0.20;0.20;;;4.00;99.90;;;;;;5129959;28;20515;-78
2022/01/06 00:13:36;;;;;;;0.10;0.10;;;3.90;99.90;;;;;;5113840;28;20075;-81
2022/01/06 00:24:18;;;;;;;0.10;0.10;;;4.30;99.90;;;;;;5132731;28;20047;-78
2022/01/06 00:26:45;;;;;;;0.10;0.10;;;3.90;99.90;;;;;;5164269;27;20043;-81
2022/01/06 00:29:12;;;;;;;0.10;0.10;;;4.00;99.90;;;;;;5163755;27;20039;-78
2022/01/06 00:31:41;;;;;;;0.10;0.10;;;4.00;99.90;;;;;;5130147;28;20092;-78
2022/01/06 00:34:10;;;;;;;0.15;0.15;;;4.00;99.90;;;;;;5146587;28;20035;-78
2022/01/06 00:36:40;;;;;;;0.10;0.10;;;4.30;99.90;;;;;;5164205;27;20047;-78
2022/01/06 00:39:08;;;;;;;0.15;0.15;;;4.00;99.90;;;;;;5163718;27;20031;-80
2022/01/06 00:41:36;;;;;;;0.10;0.10;;;4.00;99.90;;;;;;5163823;27;20040;-78
2022/01/06 00:44:05;;;;;;;0.10;0.10;;;4.00;99.90;;;;;;5146796;28;20119;-78
2022/01/06 00:46:32;;;;;;;0.10;0.10;;;3.90;99.90;;;;;;5146528;28;20483;-81
2022/01/06 00:48:59;;;;;;;0.10;0.10;;;4.40;99.90;;;;;;5113044;28;20067;-81
2022/01/06 00:51:25;;;;;;;0.10;0.10;;;3.90;99.90;;;;;;5163017;27;20084;-78
2022/01/06 00:53:52;;;;;;;0.10;0.10;;;3.80;99.90;;;;;;5129836;28;20036;-78
2022/01/06 00:56:19;;;;;;;0.10;0.10;;;3.70;99.90;;;;;;5146733;28;20496;-78
2022/01/06 00:58:48;;;;;;;0.10;0.10;;;4.10;99.90;;;;;;5146610;28;20576;-78
2022/01/06 01:01:14;;;;;;;0.20;0.20;;;4.30;99.90;;;;;;5146804;28;20048;-78
2022/01/06 01:03:41;;;;;;;0.10;0.10;;;3.70;99.90;;;;;;5129954;28;20508;-81
2022/01/06 01:06:08;;;;;;;0.10;0.10;;;3.90;99.90;;;;;;5129557;28;20040;-78
2022/01/06 01:08:34;;;;;;;0.10;0.10;;;4.10;99.90;;;;;;5112371;28;20043;-78
2022/01/06 01:11:01;;;;;;;0.10;0.10;;;3.60;99.90;;;;;;5110482;28;20181;-78
2022/01/06 01:13:30;;;;;;;0.10;0.10;;;3.50;99.90;;;;;;5129160;28;20043;-81
2022/01/06 01:16:00;;;;;;;0.10;0.10;;;3.40;99.90;;;;;;5146565;28;20047;-81
2022/01/06 01:18:27;;;;;;;0.10;0.10;;;3.40;99.90;;;;;;5130045;28;20051;-78
2022/01/06 01:20:54;;;;;;;0.10;0.10;;;3.50;99.90;;;;;;5146179;28;20039;-81
2022/01/06 01:23:22;;;;;;;0.17;0.17;;;3.30;99.90;;;;;;5146064;28;20552;-81
2022/01/06 01:25:49;;;;;;;0.10;0.10;;;3.50;99.90;;;;;;5163344;28;20039;-81
2022/01/06 01:28:17;;;;;;;0.10;0.10;;;3.20;99.90;;;;;;5112862;28;20118;-78
2022/01/06 01:33:52;;;;;;;0.10;0.10;;;4.00;99.90;;;;;;5076584;28;20445;-81
2022/01/06 01:36:19;;;;;;;0.10;0.10;;;2.90;99.90;;;;;;5087166;28;20494;-80
2022/01/06 01:38:46;;;;;;;0.10;0.10;;;3.40;99.90;;;;;;5065556;28;20083;-81
2022/01/06 01:41:13;;;;;;;0.10;0.10;;;3.70;99.90;;;;;;5146326;28;20071;-81
2022/01/06 01:43:40;;;;;;;0.10;0.10;;;2.70;99.90;;;;;;5163314;28;20043;-78
2022/01/06 01:46:14;;;;;;;0.10;0.10;;;2.70;99.90;;;;;;5145953;28;20036;-78
2022/01/06 01:48:47;;;;;;;0.10;0.10;;;2.60;99.90;;;;;;5163080;28;20071;-81
2022/01/06 01:51:14;;;;;;;0.10;0.10;;;2.40;99.90;;;;;;5163035;28;20088;-78
2022/01/06 01:53:41;;;;;;;0.10;0.10;;;2.40;99.90;;;;;;5163297;28;20072;-78
2022/01/06 01:56:10;;;;;;;0.10;0.10;;;2.30;99.90;;;;;;5112422;28;20407;-81
2022/01/06 01:58:38;;;;;;;0.10;0.10;;;2.30;99.90;;;;;;5146148;28;20046;-78
2022/01/06 02:01:05;;;;;;;0.10;0.10;;;2.30;99.90;;;;;;5129192;28;20484;-80
2022/01/06 02:03:32;;;;;;;0.10;0.10;;;2.40;99.90;;;;;;5147161;28;20040;-78
2022/01/06 02:05:58;;;;;;;0.10;0.10;;;2.10;99.90;;;;;;5115605;28;20042;-78
2022/01/06 02:08:25;;;;;;;0.15;0.15;;;2.40;99.90;;;;;;5132102;28;20044;-80
2022/01/06 02:10:52;;;;;;;0.15;0.15;;;2.80;99.90;;;;;;5115614;28;20051;-78
2022/01/06 02:13:23;;;;;;;0.10;0.10;;;2.20;99.90;;;;;;5132700;28;20488;-81
2022/01/06 02:15:50;;;;;;;0.10;0.10;;;1.90;99.90;;;;;;5133505;28;20050;-78
2022/01/06 02:18:17;;;;;;;0.10;0.10;;;2.20;99.90;;;;;;5116189;28;20083;-80
2022/01/06 02:20:44;;;;;;;0.15;0.15;;;1.80;99.90;;;;;;5148944;28;20102;-81
2022/01/06 02:23:10;;;;;;;0.17;0.17;;;1.70;99.90;;;;;;5132511;28;20046;-78
2022/01/06 02:25:37;;;;;;;0.20;0.20;;;1.70;99.90;;;;;;5115018;28;20559;-78
2022/01/06 02:28:04;;;;;;;0.10;0.10;;;1.80;99.90;;;;;;5149173;28;20122;-78
2022/01/06 02:30:33;;;;;;;0.10;0.10;;;1.60;99.90;;;;;;5115498;28;20031;-80
2022/01/06 02:33:01;;;;;;;0.10;0.10;;;1.60;99.90;;;;;;5166611;27;20031;-81
2022/01/06 02:35:28;;;;;;;0.17;0.17;;;1.70;99.90;;;;;;5131600;28;20043;-78
2022/01/06 02:37:56;;;;;;;0.10;0.10;;;2.10;99.90;;;;;;5115238;28;20094;-80
2022/01/06 02:40:24;;;;;;;0.10;0.10;;;1.80;99.90;;;;;;5166058;27;20130;-78
2022/01/06 02:42:55;;;;;;;0.13;0.13;;;2.50;99.90;;;;;;5132215;28;20039;-78
2022/01/06 02:45:26;;;;;;;0.20;0.20;;;1.80;99.90;;;;;;5165935;27;20031;-81
2022/01/06 02:47:54;;;;;;;0.20;0.20;;;1.90;99.90;;;;;;5148968;28;20038;-78
2022/01/06 02:50:21;;;;;;;0.20;0.20;;;2.10;99.90;;;;;;5148763;27;20408;-78
2022/01/06 02:52:48;;;;;;;0.10;0.10;;;2.20;99.90;;;;;;5165567;27;20036;-81
2022/01/06 02:55:15;;;;;;;0.20;0.20;;;2.20;99.90;;;;;;5114904;28;20050;-80
2022/01/06 02:57:43;;;;;;;0.20;0.20;;;2.20;99.90;;;;;;5148337;28;20122;-81
2022/01/06 03:00:13;;;;;;;0.20;0.20;;;2.40;99.90;;;;;;5165865;27;20044;-81
2022/01/06 03:02:43;;;;;;;0.20;0.20;;;2.30;99.90;;;;;;5165253;27;20412;-78
2022/01/06 03:05:11;;;;;;;0.20;0.20;;;2.20;99.90;;;;;;5165526;27;20036;-78
2022/01/06 03:07:38;;;;;;;0.10;0.10;;;2.20;99.90;;;;;;5114522;28;20039;-78
2022/01/06 03:10:09;;;;;;;0.20;0.20;;;2.10;99.90;;;;;;5148379;28;20032;-81
2022/01/06 03:12:39;;;;;;;0.10;0.10;;;2.00;99.90;;;;;;5165074;27;20082;-78
2022/01/06 03:15:10;;;;;;;0.20;0.20;;;2.00;99.90;;;;;;5147469;28;20047;-81
2022/01/06 03:17:39;;;;;;;0.20;0.20;;;1.90;99.90;;;;;;5164792;27;20035;-81
2022/01/06 03:20:08;;;;;;;0.13;0.13;;;2.10;99.90;;;;;;5165513;27;20157;-81
2022/01/06 03:22:35;;;;;;;0.20;0.20;;;1.80;99.90;;;;;;5164673;27;20080;-81
2022/01/06 03:25:03;;;;;;;0.15;0.15;;;2.20;99.90;;;;;;5165050;27;20035;-81
2022/01/06 03:27:30;;;;;;;0.13;0.13;;;1.60;99.90;;;;;;5113926;28;20043;-78
2022/01/06 03:29:57;;;;;;;0.20;0.20;;;1.60;99.90;;;;;;5131227;28;20031;-77
2022/01/06 03:32:24;;;;;;;0.10;0.10;;;1.60;99.90;;;;;;5148077;28;20051;-78
2022/01/06 03:34:51;;;;;;;0.20;0.20;;;1.60;99.90;;;;;;5113850;28;20081;-80
2022/01/06 03:37:17;;;;;;;0.10;0.10;;;2.10;99.90;;;;;;5130550;28;20067;-78
2022/01/06 03:39:44;;;;;;;0.13;0.13;;;1.50;99.90;;;;;;5130600;28;20031;-78
2022/01/06 03:42:12;;;;;;;0.17;0.17;;;2.30;99.90;;;;;;5147780;28;20526;-78
2022/01/06 03:44:39;;;;;;;0.20;0.20;;;1.40;99.90;;;;;;5130715;28;20069;-80
2022/01/06 03:47:06;;;;;;;0.20;0.20;;;1.40;99.90;;;;;;5147965;28;20039;-78
2022/01/06 03:49:33;;;;;;;0.15;0.15;;;1.40;99.90;;;;;;5164289;27;20042;-80
2022/01/06 03:52:00;;;;;;;0.22;0.22;;;1.40;99.90;;;;;;5147628;28;20035;-81
2022/01/06 03:54:27;;;;;;;0.20;0.20;;;1.40;99.90;;;;;;5113947;28;20031;-80
2022/01/06 03:56:53;;;;;;;0.20;0.20;;;1.30;99.90;;;;;;5130521;28;20048;-78
2022/01/06 03:59:20;;;;;;;0.20;0.20;;;1.30;99.90;;;;;;5130651;28;20039;-78
2022/01/06 04:01:47;;;;;;;0.10;0.10;;;1.20;99.90;;;;;;5146648;28;20040;-78
2022/01/06 04:04:14;;;;;;;0.20;0.20;;;1.10;99.90;;;;;;5147524;28;20040;-78
2022/01/06 04:06:41;;;;;;;0.20;0.20;;;1.10;99.90;;;;;;5130061;28;20123;-78
2022/01/06 04:09:08;;;;;;;0.20;0.20;;;1.10;99.90;;;;;;5164653;27;20179;-81
2022/01/06 04:11:35;;;;;;;0.20;0.20;;;1.50;99.90;;;;;;5146870;28;20138;-80
2022/01/06 04:14:02;;;;;;;0.20;0.20;;;1.00;99.90;;;;;;5130061;28;20036;-80
2022/01/06 04:16:30;;;;;;;0.20;0.20;;;0.90;99.90;;;;;;5113309;28;20043;-81
2022/01/06 04:18:57;;;;;;;0.20;0.20;;;0.90;99.90;;;;;;5129675;28;20742;-78
2022/01/06 04:21:23;;;;;;;0.20;0.20;;;0.90;99.90;;;;;;5113137;28;20130;-81
2022/01/06 04:23:50;;;;;;;0.15;0.15;;;1.00;99.90;;;;;;5146587;28;20403;-80
2022/01/06 04:26:17;;;;;;;0.20;0.20;;;1.90;99.90;;;;;;5129656;28;20036;-78
2022/01/06 04:28:44;;;;;;;0.20;0.20;;;2.10;99.90;;;;;;5146747;28;20046;-78
2022/01/06 04:31:11;;;;;;;0.20;0.20;;;1.10;99.90;;;;;;5112797;28;20031;-78
2022/01/06 04:33:37;;;;;;;0.20;0.20;;;1.10;99.90;;;;;;5146861;28;20040;-78
2022/01/06 04:36:05;;;;;;;0.20;0.20;;;1.10;99.90;;;;;;5163454;27;20032;-80
2022/01/06 04:38:33;;;;;;;0.20;0.20;;;1.00;99.90;;;;;;5146767;28;20063;-78
2022/01/06 04:41:00;;;;;;;0.20;0.20;;;1.10;99.90;;;;;;5129198;28;20607;-80
2022/01/06 04:43:26;;;;;;;0.20;0.20;;;1.30;99.90;;;;;;5129651;28;20131;-80
2022/01/06 04:45:53;;;;;;;0.20;0.20;;;1.10;99.90;;;;;;5112638;28;20135;-78
2022/01/06 04:48:20;;;;;;;0.17;0.17;;;1.00;99.90;;;;;;5146661;28;20484;-78
2022/01/06 04:50:47;;;;;;;0.20;0.20;;;1.00;99.90;;;;;;5129241;28;20043;-78
2022/01/06 04:53:13;;;;;;;0.20;0.20;;;1.00;99.90;;;;;;5112980;28;20035;-80
2022/01/06 04:55:40;;;;;;;0.20;0.20;;;1.00;99.90;;;;;;5112863;28;20565;-80
2022/01/06 04:58:07;;;;;;;0.28;0.28;;;0.90;99.90;;;;;;5129537;28;20036;-78
2022/01/06 05:00:33;;;;;;;0.25;0.25;;;1.20;99.90;;;;;;5163472;28;20043;-79
2022/01/06 05:03:00;;;;;;;0.20;0.20;;;0.90;99.90;;;;;;5129270;28;20085;-80
2022/01/06 05:05:27;;;;;;;0.30;0.30;;;0.90;99.90;;;;;;5163304;28;20067;-80
2022/01/06 05:07:54;;;;;;;0.30;0.30;;;0.80;99.90;;;;;;5145862;28;20114;-78
2022/01/06 05:10:20;;;;;;;0.15;0.15;;;0.80;99.90;;;;;;5146072;28;20035;-78
2022/01/06 05:12:47;;;;;;;0.20;0.20;;;0.80;99.90;;;;;;5128790;28;20125;-78
2022/01/06 05:15:14;;;;;;;0.20;0.20;;;0.80;99.90;;;;;;5146493;28;20185;-80
2022/01/06 05:17:41;;;;;;;0.20;0.20;;;0.80;99.90;;;;;;5163736;28;20035;-80
2022/01/06 05:20:09;;;;;;;0.20;0.20;;;0.70;99.90;;;;;;5146017;28;20036;-78
2022/01/06 05:22:42;;;;;;;0.20;0.20;;;0.80;99.90;;;;;;5112795;28;20039;-80
2022/01/06 05:25:10;;;;;;;0.20;0.20;;;0.70;99.90;;;;;;5146706;28;20104;-80
2022/01/06 05:27:36;;;;;;;0.20;0.20;;;1.60;99.90;;;;;;5146365;28;20054;-80
2022/01/06 05:30:05;;;;;;;0.20;0.20;;;0.70;99.90;;;;;;5163328;28;20039;-78
2022/01/06 05:32:32;;;;;;;0.15;0.15;;;0.60;99.90;;;;;;5163824;28;20032;-78
2022/01/06 05:34:59;;;;;;;0.20;0.20;;;0.60;99.90;;;;;;5129216;28;20563;-78
2022/01/06 05:37:25;;;;;;;0.20;0.20;;;0.60;99.90;;;;;;5112489;28;20576;-80
2022/01/06 05:39:52;;;;;;;0.20;0.20;;;0.60;99.90;;;;;;5133220;28;20396;-81
2022/01/06 05:42:19;;;;;;;0.20;0.20;;;0.50;99.90;;;;;;5133292;28;20476;-78
2022/01/06 05:44:46;;;;;;;0.20;0.20;;;0.60;99.90;;;;;;5132996;28;20499;-80
2022/01/06 05:47:12;;;;;;;0.20;0.20;;;0.50;99.90;;;;;;5149841;27;20044;-80
2022/01/06 05:49:39;;;;;;;0.20;0.20;;;0.50;99.90;;;;;;5150158;28;20046;-78
2022/01/06 05:52:06;;;;;;;0.20;0.20;;;0.50;99.90;;;;;;5166589;27;20502;-78
2022/01/06 05:54:33;;;;;;;0.20;0.20;;;0.50;99.90;;;;;;5132845;28;20042;-78
2022/01/06 05:56:59;;;;;;;0.20;0.20;;;0.40;99.90;;;;;;5149379;28;20047;-78
2022/01/06 05:59:28;;;;;;;0.20;0.20;;;0.90;99.90;;;;;;5132917;28;20044;-78
2022/01/06 06:01:55;;;;;;;0.17;0.17;;;1.10;99.90;;;;;;5115993;28;20086;-80
2022/01/06 06:04:22;;;;;;;0.20;0.20;;;0.40;99.90;;;;;;5132706;28;20075;-80
2022/01/06 06:06:48;;;;;;;0.20;0.20;;;0.60;99.90;;;;;;5115805;28;20040;-78
2022/01/06 06:09:15;;;;;;;0.20;0.20;;;0.50;99.90;;;;;;5149226;28;20038;-80
2022/01/06 06:11:42;;;;;;;0.22;0.22;;;0.50;99.90;;;;;;5149016;28;20048;-78
2022/01/06 06:14:09;;;;;;;0.20;0.20;;;0.40;99.90;;;;;;5149168;28;20038;-78
2022/01/06 06:16:35;;;;;;;0.20;0.20;;;0.40;99.90;;;;;;5115498;28;20039;-78
2022/01/06 06:19:02;;;;;;;0.20;0.20;;;0.30;99.90;;;;;;5132061;28;20036;-80
2022/01/06 06:21:29;;;;;;;0.20;0.20;;;0.30;99.90;;;;;;5166664;27;20044;-80
2022/01/06 06:23:55;;;;;;;0.20;0.20;;;1.30;99.90;;;;;;5148900;28;20046;-78
2022/01/06 06:26:22;;;;;;;0.20;0.20;;;0.30;99.90;;;;;;5149065;28;20088;-78
2022/01/06 06:28:49;;;;;;;0.20;0.20;;;0.20;99.90;;;;;;5115209;28;20122;-78
2022/01/06 06:31:15;;;;;;;0.20;0.20;;;0.30;99.90;;;;;;5097992;28;20043;-81
2022/01/06 06:33:42;;;;;;;0.20;0.20;;;0.50;99.90;;;;;;5114345;28;20035;-78
2022/01/06 06:36:09;;;;;;;0.20;0.20;;;0.10;99.90;;;;;;5094576;28;20071;-78
2022/01/06 06:38:35;;;;;;;0.20;0.20;;;0.10;99.90;;;;;;5131949;28;20118;-80
2022/01/06 06:41:02;;;;;;;0.20;0.20;;;0.20;99.90;;;;;;5114894;28;20523;-78
2022/01/06 06:43:29;;;;;;;0.20;0.20;;;0.20;99.90;;;;;;5148510;28;20384;-79
2022/01/06 06:45:55;;;;;;;0.30;0.30;;;0.10;99.90;;;;;;5115075;28;20046;-81
2022/01/06 06:48:24;;;;;;;0.20;0.20;;;0.10;99.90;;;;;;5094079;28;20036;-81
2022/01/06 06:50:51;;;;;;;0.30;0.30;;;0.10;99.90;;;;;;5115268;28;20379;-81
2022/01/06 06:53:18;;;;;;;0.28;0.28;;;0.10;99.90;;;;;;5148209;28;20035;-81
2022/01/06 06:55:45;;;;;;;0.20;0.20;;;0.10;99.90;;;;;;5114794;28;20043;-81
2022/01/06 06:58:12;;;;;;;0.20;0.20;;;1.00;99.90;;;;;;5114615;28;20040;-78
2022/01/06 07:00:38;;;;;;;0.20;0.20;;;0.10;99.90;;;;;;5148521;28;20053;-78
2022/01/06 07:03:08;;;;;;;0.20;0.20;;;1.20;99.90;;;;;;5115632;28;20050;-81
2022/01/06 07:05:35;;;;;;;0.20;0.20;;;0.10;99.90;;;;;;5131521;28;20400;-78
2022/01/06 07:08:02;;;;;;;0.30;0.30;;;0.10;99.90;;;;;;5114120;28;20092;-81
2022/01/06 07:10:29;;;;;;;0.25;0.25;;;0.20;99.90;;;;;;5114238;28;20028;-78
2022/01/06 07:12:55;;;;;;;0.22;0.22;;;0.10;99.90;;;;;;5156943;27;20122;-81
2022/01/06 07:15:23;;;;;;;0.20;0.20;;;0.90;99.90;;;;;;5110664;28;20502;-78
2022/01/06 07:17:49;;;;;;;0.30;0.30;;;0.10;99.90;;;;;;5127357;28;20067;-79
2022/01/06 07:20:16;;;;;;;0.20;0.20;;;0.20;99.90;;;;;;5114290;28;20101;-81
2022/01/06 07:22:43;;;;;;;0.30;0.30;;;0.10;99.90;;;;;;5114475;28;20044;-80
2022/01/06 07:25:10;;;;;;;0.30;0.30;;;0.90;99.90;;;;;;5147254;28;20043;-79
2022/01/06 07:27:36;;;;;;;0.20;0.20;;;0.30;99.90;;;;;;5148104;28;20130;-81
2022/01/06 07:30:05;;;;;;;0.30;0.30;;;0.10;99.90;;;;;;5130500;28;20126;-81
2022/01/06 07:32:32;;;;;;;0.20;0.20;;;0.10;99.90;;;;;;5147976;28;20039;-81
2022/01/06 07:34:58;;;;;;;0.30;0.30;;;0.20;99.90;;;;;;5147285;28;20047;-81
2022/01/06 07:37:25;;;;;;;0.30;0.30;;;0.20;99.90;;;;;;5130500;28;20142;-78
2022/01/06 07:39:52;;;;;;;0.30;0.30;;;0.10;99.90;;;;;;5113309;28;20043;-78
2022/01/06 07:42:18;;;;;;;0.30;0.30;;;0.10;99.90;;;;;;5147235;28;20047;-81
2022/01/06 07:44:47;;;;;;;0.20;0.20;;;0.00;99.90;;;;;;5164747;27;20047;-78
2022/01/06 07:47:14;;;;;;;0.20;0.20;;;0.30;99.90;;;;;;5130095;28;20735;-78
2022/01/06 07:49:41;;;;;;;0.20;0.20;;;0.80;99.90;;;;;;5148448;28;20448;-79
2022/01/06 07:52:08;;;;;;;0.20;0.20;;;0.80;99.90;;;;;;5147076;28;20126;-80
2022/01/06 07:54:35;;;;;;;0.20;0.20;;;0.60;99.90;;;;;;5147430;28;20046;-78
2022/01/06 07:57:02;;;;;;;0.20;0.20;;;0.70;99.90;;;;;;5130113;28;20050;-78
2022/01/06 07:59:28;;;;;;;0.20;0.20;;;0.00;99.90;;;;;;5092485;28;20040;-78
2022/01/06 08:01:55;;;;;;;0.30;0.30;;;0.00;99.90;;;;;;5139352;28;20043;-81
2022/01/06 08:04:22;;;;;;;0.20;0.20;;;0.40;99.90;;;;;;5109680;28;20507;-78
2022/01/06 08:06:48;;;;;;;0.20;0.20;;;0.00;99.90;;;;;;5096057;28;20446;-78
2022/01/06 08:09:15;;;;;;;0.20;0.20;;;0.00;99.90;;;;;;5112645;28;20032;-79
2022/01/06 08:11:42;;;;;;;0.20;0.20;;;-0.10;99.90;;;;;;5112977;28;20130;-78
2022/01/06 08:14:09;;;;;;;0.30;0.30;;;0.00;99.90;;;;;;5112853;28;20042;-80
2022/01/06 08:16:35;;;;;;;0.30;0.30;;;0.00;99.90;;;;;;5130155;28;20099;-79
2022/01/06 08:19:02;;;;;;;0.30;0.30;;;0.10;99.90;;;;;;5096277;28;20449;-81
2022/01/06 08:21:29;;;;;;;0.30;0.30;;;-0.10;99.90;;;;;;5129586;28;20035;-79
2022/01/06 08:23:55;;;;;;;0.30;0.30;;;0.00;99.90;;;;;;5146951;28;20082;-80
2022/01/06 08:26:22;;;;;;;0.20;0.20;;;0.00;99.90;;;;;;5148876;27;20493;-78
2022/01/06 08:28:49;;;;;;;0.20;0.20;;;0.30;99.90;;;;;;5129737;28;20442;-78
2022/01/06 08:31:16;;;;;;;0.30;0.30;;;0.00;99.90;;;;;;5096065;28;20081;-80
2022/01/06 08:33:44;;;;;;;0.30;0.30;;;-0.10;99.90;;;;;;5115961;28;20099;-81
2022/01/06 08:36:12;;;;;;;0.28;0.28;;;-0.10;99.90;;;;;;5164131;27;20043;-78
2022/01/06 08:38:39;;;;;;;0.30;0.30;;;0.40;99.90;;;;;;5113243;28;20042;-78
2022/01/06 08:41:05;;;;;;;0.20;0.20;;;0.00;99.90;;;;;;5109602;28;20118;-79
2022/01/06 08:43:32;;;;;;;0.30;0.30;;;0.00;99.90;;;;;;5111775;28;20047;-80
2022/01/06 08:45:59;;;;;;;0.20;0.20;;;0.10;99.90;;;;;;5112593;28;20043;-82
2022/01/06 08:48:27;;;;;;;0.20;0.20;;;1.20;99.90;;;;;;5128719;28;20501;-82
2022/01/06 08:50:54;;;;;;;0.13;0.13;;;0.20;99.90;;;;;;5159803;27;20093;-82
2022/01/06 08:53:22;;;;;;;0.20;0.20;;;0.20;99.90;;;;;;5128978;28;20066;-79
2022/01/06 08:55:49;;;;;;;0.20;0.20;;;0.20;99.90;;;;;;5144282;28;20040;-80
2022/01/06 08:58:17;;;;;;;0.20;0.20;;;0.20;99.90;;;;;;5091437;28;20100;-82
2022/01/06 09:00:44;;;;;;;0.30;0.30;;;0.20;99.90;;;;;;5111087;28;20070;-82
2022/01/06 09:03:11;;;;;;;0.20;0.20;;;1.20;99.90;;;;;;5128867;28;20051;-82
2022/01/06 09:05:38;;;;;;;0.30;0.30;;;0.40;99.90;;;;;;5128487;28;20493;-79
2022/01/06 09:08:06;;;;;;;0.20;0.20;;;0.30;99.90;;;;;;5146274;28;20884;-79
2022/01/06 09:10:34;;;;;;;0.20;0.20;;;0.40;99.90;;;;;;5122876;28;20032;-83
2022/01/06 09:13:01;;;;;;;0.20;0.20;;;1.00;99.90;;;;;;5095408;28;20040;-83
2022/01/06 09:15:28;;;;;;;0.20;0.20;;;0.90;99.90;;;;;;5112890;28;20089;-82
2022/01/06 09:17:56;;;;;;;0.20;0.20;;;0.50;99.90;;;;;;5095978;28;20802;-80
2022/01/06 09:20:23;;;;;;;0.20;0.20;;;0.50;99.90;;;;;;5112375;28;20044;-80
2022/01/06 09:22:50;;;;;;;0.30;0.30;;;1.20;99.90;;;;;;5113449;28;20043;-82
2022/01/06 09:25:17;;;;;;;0.20;0.20;;;1.10;99.90;;;;;;5112912;28;20070;-82
2022/01/06 09:27:44;;;;;;;0.20;0.20;;;1.10;99.90;;;;;;5114735;28;20387;-82
2022/01/06 09:30:11;;;;;;;0.20;0.20;;;0.70;99.90;;;;;;5129942;28;20039;-79
2022/01/06 09:32:39;;;;;;;0.20;0.20;;;0.60;99.90;;;;;;5132479;28;20385;-79
2022/01/06 09:35:06;;;;;;;0.22;0.22;;;0.70;99.90;;;;;;5132425;28;20027;-82
2022/01/06 09:37:33;;;;;;;0.22;0.22;;;0.70;99.90;;;;;;5116098;28;20385;-82
2022/01/06 09:39:59;;;;;;;0.20;0.20;;;0.80;99.90;;;;;;5131416;28;20039;-79
2022/01/06 09:42:26;;;;;;;0.20;0.20;;;1.00;99.90;;;;;;5129969;28;20074;-79
2022/01/06 09:44:53;;;;;;;0.20;0.20;;;1.20;99.90;;;;;;5108928;28;20521;-83
2022/01/06 09:47:23;;;;;;;0.20;0.20;;;0.80;99.90;;;;;;5148762;28;20067;-83
2022/01/06 09:49:50;;;;;;;0.20;0.20;;;0.90;99.90;;;;;;5098895;28;20491;-79
2022/01/06 09:52:20;;;;;;;0.20;0.20;;;0.90;99.90;;;;;;5116073;28;20169;-82
2022/01/06 09:54:48;;;;;;;0.20;0.20;;;0.90;99.90;;;;;;5132414;28;20035;-83
2022/01/06 09:57:15;;;;;;;0.20;0.20;;;1.00;99.90;;;;;;5131163;28;20127;-79
2022/01/06 09:59:44;;;;;;;0.20;0.20;;;1.60;99.90;;;;;;5148557;27;20185;-80
2022/01/06 10:02:16;;;;;;;0.20;0.20;;;1.80;99.90;;;;;;5132285;28;20039;-79
2022/01/06 10:04:57;;;;;;;0.17;0.17;;;1.10;99.90;;;;;;5131128;28;20047;-79
2022/01/06 10:07:24;;;;;;;0.20;0.20;;;1.10;99.90;;;;;;5146351;28;20051;-83
2022/01/06 10:09:51;;;;;;;0.15;0.15;;;1.20;99.90;;;;;;5114936;28;20035;-79
2022/01/06 10:12:17;;;;;;;0.20;0.20;;;1.20;99.90;;;;;;5131750;28;20136;-83
2022/01/06 10:14:46;;;;;;;0.20;0.20;;;1.20;99.90;;;;;;5131838;28;20488;-79
2022/01/06 10:17:15;;;;;;;0.20;0.20;;;1.50;99.90;;;;;;5149326;28;20047;-83
2022/01/06 10:19:46;;;;;;;0.20;0.20;;;1.30;99.90;;;;;;5148640;28;20046;-82
2022/01/06 10:22:19;;;;;;;0.20;0.20;;;1.40;99.90;;;;;;5131873;28;20405;-79
2022/01/06 10:24:48;;;;;;;0.20;0.20;;;1.90;99.90;;;;;;5131020;28;20044;-83
2022/01/06 10:27:18;;;;;;;0.20;0.20;;;2.20;99.90;;;;;;5130835;28;20039;-79
2022/01/06 10:29:50;;;;;;;0.10;0.10;;;1.50;99.90;;;;;;5160019;27;20032;-80
2022/01/06 10:32:26;;;;;;;0.20;0.20;;;1.50;99.90;;;;;;5163556;27;20100;-84
2022/01/06 10:34:55;;;;;;;0.20;0.20;;;1.50;99.90;;;;;;5131120;28;20484;-80
2022/01/06 10:37:38;;;;;;;0.10;0.10;;;1.60;99.90;;;;;;5164493;27;20557;-83
2022/01/06 10:40:28;;;;;;;0.20;0.20;;;2.00;99.90;;;;;;5158959;27;20028;-83
2022/01/06 10:43:05;;;;;;;0.10;0.10;;;1.70;99.90;;;;;;5117469;28;20047;-79
2022/01/06 10:45:33;;;;;;;0.10;0.10;;;1.80;99.90;;;;;;5164925;27;20067;-83
2022/01/06 10:48:02;;;;;;;0.20;0.20;;;1.80;99.90;;;;;;5115056;28;20124;-83
2022/01/06 10:50:31;;;;;;;0.20;0.20;;;2.60;99.90;;;;;;5130966;28;20047;-80
2022/01/06 10:53:05;;;;;;;0.20;0.20;;;1.90;99.90;;;;;;5110707;28;20075;-83
2022/01/06 10:55:43;;;;;;;0.20;0.20;;;2.60;99.90;;;;;;5161826;27;20385;-80
2022/01/06 10:58:23;;;;;;;0.20;0.20;;;2.00;99.90;;;;;;5111378;28;20079;-83
2022/01/06 11:00:54;;;;;;;0.20;0.20;;;2.00;99.90;;;;;;5112129;28;20044;-79
2022/01/06 11:03:28;;;;;;;0.20;0.20;;;2.20;99.90;;;;;;5130516;28;20046;-82
2022/01/06 11:05:57;;;;;;;0.10;0.10;;;2.10;99.90;;;;;;5130871;28;20039;-83
2022/01/06 11:08:27;;;;;;;0.20;0.20;;;2.20;99.90;;;;;;5130645;28;20130;-79
2022/01/06 11:13:40;;;;;;;0.10;0.10;;;2.30;99.90;;;;;;5150100;28;20058;-80
2022/01/06 11:16:08;;;;;;;0.20;0.20;;;2.30;99.90;;;;;;5131055;28;20047;-82
2022/01/06 11:18:39;;;;;;;0.20;0.20;;;2.50;99.90;;;;;;5130664;28;20044;-83
2022/01/06 11:21:15;;;;;;;0.20;0.20;;;2.40;99.90;;;;;;5130760;28;20075;-80
2022/01/06 11:23:42;;;;;;;;;;;3.30;99.90;;;;;;5148054;28;20052;-82
2022/01/06 11:26:22;;;;;;;0.20;0.20;;;2.50;99.90;;;;;;5163957;27;19920;-82
2022/01/06 11:29:01;;;;;;;0.10;0.10;;;3.10;99.90;;;;;;5130411;28;20042;-78
2022/01/06 11:31:36;;;;;;;0.15;0.15;;;2.80;99.90;;;;;;5129414;28;20032;-82
2022/01/06 11:34:14;;;;;;;0.10;0.10;;;2.70;99.90;;;;;;5130185;28;20046;-82
2022/01/06 11:36:42;;;;;;;0.10;0.10;;;2.70;99.90;;;;;;5162732;27;20539;-79
2022/01/06 11:39:24;;;;;;;0.10;0.10;;;2.70;99.90;;;;;;5130389;28;20047;-82
2022/01/06 11:41:54;;;;;;;0.10;0.10;;;2.80;99.90;;;;;;5129110;28;20044;-82
2022/01/06 11:44:26;;;;;;;0.13;0.13;;;2.80;99.90;;;;;;5141734;28;20031;-82
2022/01/06 11:46:56;;;;;;;0.10;0.10;;;2.80;99.90;;;;;;5146835;28;20568;-78
2022/01/06 11:49:30;;;;;;;0.17;0.17;;;3.50;99.90;;;;;;5130064;28;20032;-82
2022/01/06 11:52:12;;;;;;;0.13;0.13;;;2.90;99.90;;;;;;5159419;27;20484;-79
2022/01/06 11:54:54;;;;;;;0.10;0.10;;;2.90;99.90;;;;;;5129375;28;20539;-83
2022/01/06 11:57:36;;;;;;;0.10;0.10;;;3.00;99.90;;;;;;5145838;28;20526;-82
2022/01/06 12:00:19;;;;;;;0.10;0.10;;;3.00;99.90;;;;;;5146805;28;20047;-82
2022/01/06 12:03:15;;;;;;;0.10;0.10;;;3.10;99.90;;;;;;5167696;27;20035;-79
2022/01/06 12:05:51;;;;;;;0.10;0.10;;;3.40;99.90;;;;;;5095575;28;20048;-80
2022/01/06 12:08:33;;;;;;;0.10;0.10;;;3.40;99.90;;;;;;5130098;28;20050;-81
2022/01/06 12:11:00;;;;;;;0.10;0.10;;;3.80;99.90;;;;;;5125738;28;20516;-82
2022/01/06 12:13:27;;;;;;;0.20;0.20;;;3.30;99.90;;;;;;5110061;28;20087;-79
2022/01/06 12:15:56;;;;;;;0.20;0.20;;;3.40;99.90;;;;;;5109535;28;20386;-81
2022/01/06 12:18:28;;;;;;;0.10;0.10;;;3.40;99.90;;;;;;5129589;28;20040;-79
2022/01/06 12:20:57;;;;;;;0.10;0.10;;;3.40;99.90;;;;;;5129598;28;20039;-82
2022/01/06 12:23:24;;;;;;;0.10;0.10;;;3.90;99.90;;;;;;5129307;28;20043;-79
2022/01/06 12:26:03;;;;;;;0.10;0.10;;;4.20;99.90;;;;;;5129136;28;20031;-82
2022/01/06 12:28:32;;;;;;;0.10;0.10;;;3.50;99.90;;;;;;5129132;28;20043;-81
2022/01/06 12:31:01;;;;;;;0.10;0.10;;;3.50;99.90;;;;;;5129053;28;20058;-79
2022/01/06 12:33:30;;;;;;;0.10;0.10;;;3.60;99.90;;;;;;5129040;28;20089;-82
2022/01/06 12:35:58;;;;;;;0.10;0.10;;;3.60;99.90;;;;;;5103137;28;20497;-78
2022/01/06 12:38:29;;;;;;;0.10;0.10;;;3.70;99.90;;;;;;5119763;28;20050;-79
2022/01/06 12:40:56;;;;;;;0.10;0.10;;;3.70;99.90;;;;;;5145682;28;20049;-79
2022/01/06 12:43:26;;;;;;;0.10;0.10;;;4.20;99.90;;;;;;5112847;28;20043;-79
2022/01/06 12:46:16;;;;;;;0.10;0.10;;;3.70;99.90;;;;;;5162759;27;20067;-79
2022/01/06 12:48:49;;;;;;;0.10;0.10;;;3.80;99.90;;;;;;5162859;27;20516;-79
2022/01/06 12:51:30;;;;;;;0.10;0.10;;;3.80;99.90;;;;;;5129004;28;20041;-79
2022/01/06 12:54:10;;;;;;;0.10;0.10;;;3.90;99.90;;;;;;5145773;28;20507;-82
2022/01/06 12:56:42;;;;;;;0.55;0.55;;;4.00;99.90;;;;;;5163171;27;20176;-82
2022/01/06 12:59:15;;;;;;;0.10;0.10;;;3.80;99.90;;;;;;5146255;28;20501;-79
2022/01/06 13:01:44;;;;;;;0.10;0.10;;;3.80;99.90;;;;;;5162427;28;20465;-82
2022/01/06 13:04:12;;;;;;;0.10;0.10;;;4.10;99.90;;;;;;5163624;28;20036;-79
2022/01/06 13:06:42;;;;;;;0.10;0.10;;;3.90;99.90;;;;;;5128635;28;20040;-79
2022/01/06 13:09:21;;;;;;;0.10;0.10;;;4.00;99.90;;;;;;5162731;28;20549;-79
2022/01/06 13:11:53;;;;;;;0.10;0.10;;;3.90;99.90;;;;;;5145227;28;20120;-78
2022/01/06 13:14:42;;;;;;;0.10;0.10;;;3.90;99.90;;;;;;5162880;28;20043;-79
2022/01/06 13:17:13;;;;;;;0.10;0.10;;;3.90;99.90;;;;;;5162780;28;20079;-82
2022/01/06 13:19:56;;;;;;;0.10;0.10;;;3.90;99.90;;;;;;5163024;28;20047;-82